Terminal Aerodrome Forecast
Issued by NWS Sioux Falls, SD

Home | Current Version | Previous Version | Graphics & Text | Print | Product List | Glossary On
Versions: 1 2 3 4 5 6 7 8 9 10 11 12 13 14 15 16 17 18 19 20 21 22
000
FTUS43 KFSD 061120
TAFFSD
TAF
KFSD 061120Z 0612/0712 01010KT P6SM -SHRA OVC008
     FM061400 36016G22KT P6SM -SHRA OVC012
     FM061600 36017G24KT P6SM SCT030 SCT120
     FM070100 36007KT P6SM SKC=

USA.gov is the U.S. government's official web portal to all federal, state and local government web resources and services.